Weather observations for the past three days for
Baraboo Wisconsin Dells Airport
Imperial (Metric)
Date Time (cdt) Wind (mph) Vis. (mi.) Weather Sky Cond. Temperature (ºF) Relative Humidity Wind Chill (°F) Heat Index (°F) Pressure Precipitation (in)
Air Dwpt 6 hour altimeter (in) sea level (mb) 1 hr 3 hr 6 hr
Max. Min.
06 16:15 E 3 10.00 Partly Cloudy SCT033 SCT042 75.7 62.8 64% 78 30.1 0.0
06 15:55 E 6 10.00 Mostly Cloudy SCT031 BKN039 75.4 63.5 67% 77 30.12 0.0
06 15:35 NE 3 10.00 Partly Cloudy SCT031 75.6 63.5 66% 77 30.12 0.0
06 15:15 E 3 10.00 Partly Cloudy SCT031 SCT038 SCT043 74.1 63.9 70% 30.12 0.0
06 14:55 E 5 10.00 Partly Cloudy SCT038 SCT046 75.7 61.9 62% 78 30.12 0.0
06 14:35 E 6 10.00 Mostly Cloudy SCT038 BKN044 75.9 61.9 62% 78 30.12 0.0
06 14:10 E 5 10.00 Partly Cloudy SCT041 75.4 61.5 62% 77 30.13 0.0
06 13:55 NE 3 10.00 Partly Cloudy SCT034 SCT041 76.1 61.9 62% 78 30.13 0.0
06 13:35 Calm 10.00 Mostly Cloudy SCT032 BKN039 75 61.7 63% 77 30.14 0.0
06 13:15 E 5 10.00 Partly Cloudy SCT030 SCT037 SCT043 73 62.1 69% 30.14 0.0
06 12:55 Calm 10.00 Partly Cloudy SCT024 SCT037 73.2 63 74.1 55.8 70% 30.14 0.0
06 12:35 NE 5 10.00 Partly Cloudy SCT024 SCT032 73.4 63.7 72% 30.14 0.0
06 12:15 E 5 10.00 Partly Cloudy SCT024 SCT032 74.1 64.2 71% 30.15 0.0
06 11:55 Calm 10.00 Mostly Cloudy BKN032 71.8 63 74% 30.15 0.0
06 11:35 E 5 10.00 Overcast OVC030 71.6 62.8 74% 30.16 0.0
06 11:15 SE 3 10.00 Mostly Cloudy SCT017 BKN028 70.9 62.2 74% 30.16 0.0
06 10:55 Calm 10.00 Partly Cloudy SCT015 70.2 63.1 79% 30.16 0.0
06 10:35 E 3 10.00 Fair CLR 68.4 62.8 82% 30.15 0.0
06 10:15 E 3 10.00 Fair CLR 67.5 63 86% 30.15 0.0
06 09:55 NE 5 10.00 Fair CLR 66.4 62.6 88% 30.14 0.0
06 09:35 NE 3 10.00 Partly Cloudy SCT006 64.2 61.5 91% 30.14 0.0
06 09:15 NE 3 10.00 Partly Cloudy SCT006 63.7 61.3 92% 30.14 0.0
06 08:55 NE 3 10.00 Partly Cloudy SCT006 62.4 60.6 94% 30.15 0.0
06 08:35 E 5 10.00 Partly Cloudy SCT004 61 60.3 98% 30.14 0.0
06 08:15 NE 3 10.00 Fair CLR 59.2 59 99% 30.14 0.0
06 07:55 Calm 10.00 Fair CLR 59 59 100% 30.14 0.0
06 07:35 Calm 10.00 Fair CLR 57.9 57.9 100% 30.14 0.0
06 07:15 Calm 1.75 Fog/Mist BKN001 56.8 56.8 100% 30.13 0.0
06 06:55 Calm 0.25 Fog OVC001 56.1 56.1 60.4 55.9 100% 30.13 0.0
06 06:35 Calm 0.25 Fog OVC001 56.7 56.7 100% 30.12 0.0
06 06:15 Calm 0.50 Fog OVC001 56.8 56.8 100% 30.12 0.0
06 05:55 Calm 0.50 Fog OVC001 57.4 57.4 100% 30.12 0.0
06 05:35 Calm 0.25 Fog OVC001 57.7 57.7 100% 30.11 0.0
06 05:15 Calm 0.25 Fog OVC001 57.7 57.7 100% 30.1 0.0
06 04:55 Calm 0.25 Fog OVC001 57.7 57.7 100% 30.1 0.0
06 04:35 Calm 0.25 Fog OVC001 58.1 58.1 100% 30.1 0.0
06 04:15 Calm 0.25 Fog OVC001 59 59 100% 30.11 0.0
06 03:55 Calm 0.25 Fog OVC001 59.4 59.4 100% 30.1 0.0
06 03:35 Calm 0.25 Fog OVC001 59.9 59.9 100% 30.1 0.0
06 03:15 Calm 0.25 Fog OVC001 60.1 60.1 100% 30.1 0.0
06 02:55 Calm 0.25 Fog OVC001 59.9 59.9 100% 30.1 0.0
06 02:35 Calm 0.25 Fog OVC001 60.4 60.4 100% 30.11 0.0
06 02:15 Calm 0.25 Fog OVC001 60.3 60.3 100% 30.1 0.0
06 01:55 Calm 1.00 Fog/Mist BKN001 59.5 59.5 100% 30.1 0.0
06 01:35 Calm 0.75 Fog/Mist SCT001 58.5 58.5 100% 30.1 0.0
06 01:15 NE 3 4.00 Fog/Mist CLR 58.8 58.8 100% 30.1 0.0
06 00:55 Calm 4.00 Fog/Mist CLR 60.1 60.1 68.5 59.2 100% 30.1 0.0
06 00:35 Calm 3.00 Fog/Mist CLR 59.7 59.7 100% 30.1 0.0
06 00:15 Calm 0.75 Fog/Mist SCT009 60.3 60.3 100% 30.1 0.0
05 23:55 Calm 5.00 Fog/Mist SCT009 SCT018 60.3 60.3 100% 30.1 0.0
05 23:35 Calm 1.50 Fog/Mist SCT018 60.6 60.6 100% 30.1 0.0
05 23:15 Calm 4.00 Fog/Mist CLR 59.9 59.9 100% 30.09 0.0
05 22:55 Calm 10.00 Fair CLR 61 60.8 99% 30.08 0.0
05 22:35 Calm 10.00 Fair CLR 63.1 62.4 98% 30.08 0.0
05 22:15 E 3 10.00 Fair CLR 63.3 62.6 98% 30.07 0.0
05 21:55 NE 5 10.00 Fair CLR 63.5 62.8 98% 30.07 0.0
05 21:35 NE 5 10.00 Fair CLR 63.7 62.8 97% 30.07 0.0
05 21:15 NE 3 10.00 Fair CLR 63.5 62.6 97% 30.06 0.0
05 20:55 Calm 10.00 Fair CLR 64 62.6 95% 30.05 0.0
05 20:35 E 3 10.00 Fair CLR 65.3 63.1 93% 30.04 0.0
05 20:15 NE 8 10.00 Fair CLR 65.5 63.5 93% 30.04 0.0
05 19:55 NE 7 10.00 Fair CLR 66.4 63.5 91% 30.04 0.0
05 19:35 NE 6 10.00 Fair CLR 66.7 63.9 91% 30.04 0.0
05 19:15 NE 6 10.00 Fair CLR 67.3 64 89% 30.03 0.0
05 18:55 NE 7 10.00 Fair CLR 68.9 64.4 74.7 68.9 86% 30.04 0.0
05 18:35 NE 7 10.00 Fair CLR 70.3 65.1 84% 30.04 0.0
05 18:15 NE 7 10.00 Fair CLR 71.6 65.3 81% 30.04 0.0
05 17:55 NE 8 10.00 Fair CLR 71.8 65.8 82% 30.04 0.0
05 17:35 NE 8 10.00 Fair CLR 72.9 65.8 79% 30.04 0.0
05 17:15 NE 7 10.00 Fair CLR 73.4 65.5 76% 30.04 0.0
05 16:55 NE 9 10.00 Partly Cloudy SCT038 73.6 65.8 77% 30.03 0.0
05 16:35 NE 8 10.00 Mostly Cloudy BKN036 73.9 66.2 77% 30.03 0.0
05 16:15 NE 7 10.00 Overcast OVC036 73.4 65.3 76% 30.04 0.0
05 15:55 NE 6 10.00 Overcast OVC034 72.7 65.7 79% 30.04 0.0
05 15:35 NE 8 10.00 Overcast OVC032 73.6 66.4 78% 30.04 0.0
05 15:15 E 9 10.00 Overcast OVC032 73 65.5 77% 30.04 0.0
05 14:55 E 10 10.00 Overcast SCT020 OVC032 72.1 65.1 79% 30.04 0.0
05 12:55 NE 7 10.00 Overcast SCT016 OVC024 71.8 66.6 71.8 66.2 84% 30.05 0.0
05 12:35 NE 6 10.00 Overcast OVC022 70.5 66.4 87% 30.05 0.0
05 12:15 NE 6 10.00 Overcast OVC015 69.4 66 89% 30.06 0.0
05 11:55 E 3 10.00 Overcast BKN014 OVC022 70.5 66.4 87% 30.06 0.0
05 11:35 NE 7 10.00 Overcast SCT007 BKN012 OVC022 70.5 66.7 88% 30.06 0.0
05 11:15 NE 6 10.00 Overcast BKN006 BKN011 OVC022 69.3 67.3 93% 30.06 0.0
05 10:55 NE 5 10.00 Overcast OVC006 67.6 66.7 97% 30.06 0.0
05 10:35 NE 3 5.00 Fog/Mist BKN006 OVC010 66.9 66.4 98% 30.06 0.0
05 10:15 NE 6 2.50 Fog/Mist OVC004 66.6 66.4 99% 30.05 0.0
05 09:55 NE 8 3.00 Fog/Mist OVC004 66.6 66.2 99% 30.05 0.0
05 09:35 NE 7 2.50 Fog/Mist OVC006 66.6 66.4 99% 30.04 0.0
05 09:15 NE 7 5.00 Fog/Mist OVC006 67.1 66.6 98% 30.03 0.0
05 08:55 NE 7 5.00 Fog/Mist OVC004 66.9 66.4 98% 30.02 0.0
05 08:35 NE 8 5.00 Fog/Mist OVC004 66.9 66.6 99% 30.02 0.0
05 08:15 NE 8 2.50 Fog/Mist OVC002 66.6 66.6 100% 30.01 0.0
05 07:55 NE 8 3.00 Fog/Mist OVC002 66.6 66.6 100% 30.01 0.0
05 07:35 NE 7 4.00 Fog/Mist OVC002 66.6 66.6 100% 30.02 0.0
05 07:15 NE 9 4.00 Fog/Mist OVC002 66.7 66.7 100% 30 0.0
05 06:55 NE 6 4.00 Fog/Mist OVC002 66.9 66.9 68 66.6 100% 29.99 0.0
05 06:35 NE 7 4.00 Fog/Mist OVC002 66.7 66.7 100% 29.98 0.0
05 06:15 NE 8 4.00 Fog/Mist OVC002 66.7 66.7 100% 29.97 0.0
05 05:55 NE 6 3.00 Fog/Mist OVC002 67.1 67.1 100% 29.96 0.0
05 05:35 NE 7 1.00 Fog/Mist OVC002 67.3 67.3 100% 29.96 0.0
05 05:15 NE 3 0.25 Fog OVC002 67.6 67.6 100% 29.96 0.0
05 04:55 NE 5 0.50 Fog OVC002 68 68 100% 29.96 0.0
05 04:35 NE 3 0.25 Fog OVC002 68 68 100% 29.96 0.0
05 04:15 N 3 0.25 Fog OVC002 68 68 100% 29.96 0.0
05 03:55 Calm 0.25 Fog OVC002 67.6 67.6 100% 29.96 0.0
05 03:35 Calm 0.25 Fog OVC002 67.6 67.6 100% 29.95 0.0
05 03:15 Calm 0.25 Fog OVC002 67.5 67.5 100% 29.95 0.0
05 02:55 Calm 0.50 Fog OVC002 67.5 67.5 100% 29.96 0.0
05 02:30 Calm 0.25 Fog OVC002 67.1 67.1 100% 29.96 0.0
05 02:15 Calm 0.75 Fog/Mist OVC002 67.1 67.1 100% 29.96 0.0
05 01:55 Calm 2.50 Fog/Mist OVC002 67.1 67.1 100% 29.96 0.0
05 01:35 Calm 2.50 Fog/Mist OVC002 67.3 67.3 100% 29.96 0.0
05 01:15 Calm 2.00 Fog/Mist OVC002 67.6 67.6 100% 29.96 0.0
05 00:55 NE 5 1.00 Fog/Mist OVC002 67.3 67.3 74.3 65.3 100% 29.96 0.0
05 00:30 Calm 2.00 Fog/Mist OVC031 67.1 67.1 100% 29.95 0.0
05 00:15 Calm 4.00 Fog/Mist OVC031 65.8 65.8 100% 29.95 0.0
04 23:55 Calm 1.00 Fog/Mist BKN029 66.6 66.6 100% 29.95 0.0
04 23:35 Calm 5.00 Fog/Mist CLR 66.2 66.2 100% 29.95 0.0
04 23:15 Calm 5.00 Fog/Mist CLR 65.3 65.3 100% 29.95 0.0
04 22:55 Calm 3.00 Fog/Mist CLR 67.1 67.1 100% 29.95 0.0
04 22:35 Calm 2.50 Fog/Mist CLR 66.9 66.9 100% 29.94 0.0
04 22:15 Calm 4.00 Fog/Mist CLR 66 66 100% 29.94 0.0
04 21:55 Calm 4.00 Fog/Mist CLR 66.9 66.9 100% 29.94 0.0
04 21:35 Calm 5.00 Fog/Mist CLR 67.5 67.5 100% 29.95 0.0
04 21:15 Calm 7.00 Fair CLR 67.6 67.6 100% 29.95 0.0
04 20:55 Calm 7.00 Fair CLR 67.5 67.5 100% 29.95 0.0
04 20:35 Calm 10.00 Fair CLR 68.2 68.2 100% 29.93 0.0
04 20:15 Calm 10.00 Fair CLR 68.2 68 99% 29.94 0.0
04 19:55 Calm 10.00 Fair CLR 70.5 69.4 96% 29.94 0.0
04 19:35 Calm 10.00 Fair CLR 71.8 70.7 96% 29.94 0.0
04 19:15 NE 3 10.00 Partly Cloudy SCT017 73.2 71.4 94% 29.94 0.0
04 18:55 Calm 10.00 Fair CLR 74.3 71.8 77 70.7 92% 29.92 0.0
04 18:35 NE 5 10.00 Fair CLR 74.1 72 93% 29.91 0.0
04 18:15 Calm 10.00 Fair CLR 74.7 72.9 94% 29.92 0.0
04 17:55 Calm 10.00 Fair CLR 75.4 73.4 94% 74 29.9 0.0
04 17:35 Calm 10.00 Fair CLR 75.2 72.9 92% 74 29.9 0.0
04 17:15 Calm 10.00 Fair CLR 75.7 73.4 92% 75 29.89 0.0
04 16:55 Calm 10.00 Fair CLR 75.9 72.7 90% 76 29.9 0.0
04 16:35 Calm 10.00 Fair CLR 76.5 72.5 88% 77 29.9 0.0
04 16:15 Calm 10.00 Fair CLR 76.6 72 86% 78 29.9 0.0
04 15:55 S 3 10.00 Fair CLR 76.6 71.6 84% 78 29.89 0.0
04 15:35 S 3 10.00 Fair CLR 76.5 71.2 84% 77 29.9 0.0
04 15:15 Calm 10.00 Fair CLR 75.7 71.1 85% 76 29.9 0.0
04 14:55 SW 3 10.00 Fair CLR 75.2 70.9 87% 75 29.9 0.0
04 14:35 S 3 10.00 Fair CLR 74.3 70.2 87% 29.91 0.0
04 14:15 S 5 10.00 Fair CLR 73 69.4 89% 29.91 0.0
04 13:55 S 10 10.00 Fair CLR 73.4 69.1 86% 29.92 0.0
04 13:35 S 7 10.00 Fair CLR 71.6 68.2 89% 29.93 0.0
04 13:15 S 8 10.00 Fair CLR 71.8 68.2 88% 29.94 0.0
04 12:55 S 10 10.00 Thunderstorm in Vicinity CLR 70.9 67.5 72 66 89% 29.94 0.0 0.01 0.21
04 12:35 S 8 10.00 Fair CLR 70.5 67.1 89% 29.94 0.0
04 12:15 S 8 G 17 10.00 Fair CLR 69.8 66.7 90% 29.94 0.0
04 11:55 S 14 G 17 10.00 Thunderstorm in Vicinity SCT120 71.4 67.5 87% 29.95 0.0
04 11:35 S 15 G 21 10.00 Mostly Cloudy BKN120 68.4 65.8 92% 29.95 0.0
04 11:15 S 13 10.00 Thunderstorm CLR 67.6 66.2 95% 29.93 0.0
04 10:55 S 15 G 18 10.00 Fair CLR 68.2 66.4 94% 29.95 0.0
04 10:35 S 13 10.00 Fair CLR 67.6 66.2 95% 29.96 0.0
04 10:15 SE 14 10.00 Fair CLR 67.5 66 95% 29.96 0.0
04 09:55 SE 7 10.00 Partly Cloudy SCT120 67.1 65.7 95% 29.95 0.0 0.2
04 09:35 SE 9 10.00 Thunderstorm in Vicinity SCT120 66.6 65.7 97% 29.95 0.0
04 09:15 E 5 10.00 Thunderstorm in Vicinity SCT070 SCT120 66.9 66.2 98% 29.94 0.0
04 08:55 SE 9 10.00 Thunderstorm SCT004 BKN070 66.9 66.4 98% 29.96 0.0 0.06
04 08:35 E 8 G 16 10.00 Thunderstorm BKN004 BKN020 OVC070 66.4 66.2 99% 29.95 0.0 0.06
04 08:15 E 14 G 18 4.00 Rain SCT004 BKN020 OVC070 66.2 65.7 98% 29.94 0.0 0.06
04 07:55 E 16 G 22 10.00 Thunderstorm in Vicinity BKN004 BKN020 OVC070 66.2 65.8 99% 29.95 0.0 0.14
04 07:35 E 15 G 26 5.00 Thunderstorm Light Rain in Vicinity SCT006 BKN018 OVC070 66.6 66.2 99% 29.94 0.0 0.14
04 07:15 NE 10 G 18 10.00 Light Rain SCT004 BKN065 OVC090 67.5 66.7 98% 29.95 0.0
04 06:55 E 14 G 20 10.00 Thunderstorm in Vicinity SCT004 BKN065 OVC080 67.5 66.9 72.3 67.5 98% 29.91 0.0
04 06:35 NE 16 G 20 10.00 Thunderstorm in Vicinity SCT004 BKN065 OVC100 68.4 67.5 97% 29.92 0.0
04 06:15 Calm 10.00 Thunderstorm in Vicinity OVC100 72.3 69.4 91% 29.87 0.0
04 05:55 S 7 10.00 Thunderstorm in Vicinity OVC100 72 69.4 92% 29.87 0.0
04 05:35 S 5 10.00 Overcast OVC100 69.4 69.1 99% 29.87 0.0
04 05:15 Calm 7.00 Partly Cloudy SCT100 67.8 67.8 100% 29.86 0.0
04 04:55 Calm 10.00 Fair CLR 69.1 68.5 98% 29.87 0.0
04 04:35 SE 3 7.00 Partly Cloudy SCT120 68 67.8 99% 29.89 0.0
04 04:15 Calm 7.00 Partly Cloudy SCT120 68.5 68.2 99% 29.89 0.0
04 03:55 Calm 7.00 Partly Cloudy SCT120 68.7 68.4 99% 29.89 0.0
04 03:35 NE 3 5.00 Fog/Mist SCT120 68.7 68.7 100% 29.89 0.0
04 02:55 SE 3 7.00 Mostly Cloudy BKN120 69.1 68.5 98% 29.89 0.0
04 02:35 E 13 G 16 5.00 Fog/Mist OVC120 69.6 69.3 99% 29.9 0.0
04 02:15 E 9 7.00 Mostly Cloudy BKN120 70.2 69.8 99% 29.89 0.0
04 01:55 Calm 10.00 Fair CLR 70.5 69.8 98% 29.88 0.0
04 01:35 S 5 10.00 Fair CLR 70.9 70 97% 29.86 0.0
04 01:15 S 8 10.00 Fair CLR 70.5 70 98% 29.86 0.0
04 00:55 S 7 4.00 Fog/Mist CLR 68 68 73.2 68 100% 29.87 0.0
04 00:35 SE 3 5.00 Fog/Mist CLR 68.5 68.4 99% 29.89 0.0
04 00:15 E 3 7.00 Fair CLR 68.9 68.5 99% 29.9 0.0
03 23:55 E 5 10.00 Mostly Cloudy BKN090 BKN110 69.1 68.5 98% 29.91 0.0
03 23:35 E 6 10.00 Mostly Cloudy BKN090 69.3 68.9 99% 29.92 0.0
03 23:15 E 5 10.00 Partly Cloudy SCT100 69.4 68.9 98% 29.92 0.0
03 22:55 E 7 10.00 Overcast OVC100 69.8 69.3 98% 29.93 0.0
03 22:35 NE 5 10.00 Overcast OVC100 70.2 69.8 99% 29.93 0.0
03 22:15 NE 5 10.00 Overcast OVC100 70.3 69.8 98% 29.94 0.0
03 21:55 Calm 10.00 Overcast OVC110 70.7 70 98% 29.94 0.0
03 21:35 Calm 10.00 Overcast OVC100 70.7 70 98% 29.94 0.0
03 21:15 NE 5 7.00 Overcast OVC100 70.7 70 98% 29.93 0.0
03 20:55 E 3 7.00 Overcast OVC100 70.7 70 98% 29.92 0.0
03 20:35 E 5 10.00 Mostly Cloudy BKN100 71.1 70.3 98% 29.92 0.0
03 20:15 E 5 10.00 Partly Cloudy SCT110 70.9 70.2 98% 29.92 0.0
03 19:55 E 6 10.00 Fair CLR 70.9 70 97% 29.91 0.0
03 19:35 E 3 10.00 Fair CLR 71.1 70 96% 29.91 0.0
03 19:15 E 3 10.00 Fair CLR 72.1 70.2 94% 29.92 0.0
03 18:55 E 3 10.00 Fair CLR 73.4 70.5 76.6 68 91% 29.92 0.0
03 18:35 NE 3 10.00 Fair CLR 74.3 70.7 89% 29.91 0.0
03 18:15 Calm 10.00 Fair CLR 74.5 70.7 88% 29.91 0.0
03 17:55 E 7 10.00 Fair CLR 74.3 70.7 89% 29.91 0.0
03 17:35 E 5 10.00 Fair CLR 73.2 70 90% 29.91 0.0
03 17:15 E 6 10.00 Fair CLR 74.3 70.3 88% 29.91 0.0
03 16:55 E 7 10.00 Fair CLR 73.6 69.6 87% 29.92 0.0
Date Time (cdt) Wind (mph) Vis. (mi.) Weather Sky Cond. Air Dwpt Max. Min. Relative Humidity Wind Chill (°F) Heat Index (°F) altimeter (in) sea level (mb) 1 hr 3 hr 6 hr
6 hour
Temperature (ºF) Pressure Precipitation (in)